Troviken — C6ZT9 — position and weather

sailwx.info

Track history (hours):
 
Tides and Currents Weather Stations Pressure Air Temp Water Temp Dewpoint Dewpoint Depression Visibility Wind Speed Wind Dir Waves Ship Positions

Troviken

Last reported at 2015-Jan-15 12:27 UTC. Time now 2015-Jan-25 03:48 UTC.
Position N 37°13' E 006°51'.
Warning: this ship's position is 9 days out of date.

Length 250 m; draft 8.2 m.

Type: Ship (hazmat cat A). MMSI: 311066200.

Date/timePositionNaut miles runAvg speedWind from/ knotsBaromVisibWave heightAir tempDewpointWater temp
2015-Jan-15 12:27N 37°13' E 006°51'1 0.9
2015-Jan-15 11:25N 37°12' E 006°51'1 0.9
2015-Jan-15 10:19N 37°12' E 006°53'1 1.1
2015-Jan-15 09:33N 37°11' E 006°54'1 1.1
2015-Jan-15 08:27N 37°11' E 006°55'1 0.8
2015-Jan-15 07:32N 37°11' E 006°56'3 1.3
2015-Jan-15 05:26N 37°09' E 006°53'7 7.1
2015-Jan-15 04:26N 37°11' E 006°44'1 1.0
2015-Jan-15 03:33N 37°11' E 006°45'0 0.1
2015-Jan-15 02:33N 37°11' E 006°45'1 0.9
2015-Jan-15 01:22N 37°11' E 006°46'2 1.4
2015-Jan-15 00:05N 37°12' E 006°48'4 0.3
2015-Jan-14 11:32N 37°08' E 006°48'2 0.8
2015-Jan-14 09:33N 37°09' E 006°48'3 0.1
2015-Jan-13 10:22N 37°12' E 006°50'2 0.8
2015-Jan-13 08:21N 37°10' E 006°51'1 0.9
2015-Jan-13 07:28N 37°10' E 006°51'2 0.0
2015-Jan-11 07:07N 37°08' E 006°54'3 0.9
2015-Jan-11 03:33N 37°11' E 006°54'1 0.6
2015-Jan-11 02:32N 37°11' E 006°55'1 0.7
2015-Jan-11 01:33N 37°11' E 006°54'1 0.7
2015-Jan-10 23:28N 37°11' E 006°53'1 1.0
2015-Jan-10 22:33N 37°11' E 006°51'1 0.7
2015-Jan-10 21:30N 37°11' E 006°51'1 0.9
2015-Jan-10 20:33N 37°10' E 006°50'1 0.7
2015-Jan-10 18:33N 37°09' E 006°50'7 7.5
2015-Jan-10 17:33N 37°09' E 006°59'1 0.9
2015-Jan-10 16:31N 37°09' E 006°58'1 1.1
2015-Jan-10 15:22N 37°10' E 006°57'4 0.4
2015-Jan-10 06:33N 37°09' E 006°52'3 2.7
2015-Jan-10 05:33N 37°08' E 006°55'4 3.1
2015-Jan-10 04:10N 37°05' E 006°59'  
2015-Jan-06 15:08N 36°04' W 005°09'813.5
2015-Jan-06 14:34N 36°03' W 005°18'5 4.2
2015-Jan-06 13:19N 36°07' W 005°22'0 0.0
2015-Jan-06 12:28N 36°07' W 005°22'0 0.0
2015-Jan-06 11:31N 36°07' W 005°22'0 0.1
2015-Jan-06 10:22N 36°07' W 005°22'0 0.2
2015-Jan-06 09:31N 36°08' W 005°23'0 0.2
2015-Jan-06 08:25N 36°07' W 005°22'0 0.0
2015-Jan-06 04:10N 36°07' W 005°22'0 0.0
2015-Jan-06 01:31N 36°07' W 005°22'0 0.1
2015-Jan-06 00:31N 36°08' W 005°22'0 0.0
2015-Jan-05 23:25N 36°08' W 005°22'0 0.1
2015-Jan-05 22:10N 36°08' W 005°22'4 1.3
2015-Jan-05 19:30N 36°04' W 005°20'1 0.9
2015-Jan-05 18:26N 36°04' W 005°21'3 3.9
2015-Jan-05 17:33N 36°01' W 005°21'  
Track history (hours):
 
Tides and Currents Weather Stations Pressure Air Temp Water Temp Dewpoint Dewpoint Depression Visibility Wind Speed Wind Dir Waves Ship Positions

Troviken

Last reported at 2015-Jan-15 12:27 UTC. Time now 2015-Jan-25 03:48 UTC.
Position N 37°13' E 006°51'.
Warning: this ship's position is 9 days out of date.

Length 250 m; draft 8.2 m.

Type: Ship (hazmat cat A). MMSI: 311066200.

Date/timePositionNaut miles runAvg speedWind from/ knotsBaromVisibWave heightAir tempDewpointWater temp
2015-Jan-15 12:27N 37°13' E 006°51'1 0.9
2015-Jan-15 11:25N 37°12' E 006°51'1 0.9
2015-Jan-15 10:19N 37°12' E 006°53'1 1.1
2015-Jan-15 09:33N 37°11' E 006°54'1 1.1
2015-Jan-15 08:27N 37°11' E 006°55'1 0.8
2015-Jan-15 07:32N 37°11' E 006°56'3 1.3
2015-Jan-15 05:26N 37°09' E 006°53'7 7.1
2015-Jan-15 04:26N 37°11' E 006°44'1 1.0
2015-Jan-15 03:33N 37°11' E 006°45'0 0.1
2015-Jan-15 02:33N 37°11' E 006°45'1 0.9
2015-Jan-15 01:22N 37°11' E 006°46'2 1.4
2015-Jan-15 00:05N 37°12' E 006°48'4 0.3
2015-Jan-14 11:32N 37°08' E 006°48'2 0.8
2015-Jan-14 09:33N 37°09' E 006°48'3 0.1
2015-Jan-13 10:22N 37°12' E 006°50'2 0.8
2015-Jan-13 08:21N 37°10' E 006°51'1 0.9
2015-Jan-13 07:28N 37°10' E 006°51'2 0.0
2015-Jan-11 07:07N 37°08' E 006°54'3 0.9
2015-Jan-11 03:33N 37°11' E 006°54'1 0.6
2015-Jan-11 02:32N 37°11' E 006°55'1 0.7
2015-Jan-11 01:33N 37°11' E 006°54'1 0.7
2015-Jan-10 23:28N 37°11' E 006°53'1 1.0
2015-Jan-10 22:33N 37°11' E 006°51'1 0.7
2015-Jan-10 21:30N 37°11' E 006°51'1 0.9
2015-Jan-10 20:33N 37°10' E 006°50'1 0.7
2015-Jan-10 18:33N 37°09' E 006°50'7 7.5
2015-Jan-10 17:33N 37°09' E 006°59'1 0.9
2015-Jan-10 16:31N 37°09' E 006°58'1 1.1
2015-Jan-10 15:22N 37°10' E 006°57'4 0.4
2015-Jan-10 06:33N 37°09' E 006°52'3 2.7
2015-Jan-10 05:33N 37°08' E 006°55'4 3.1
2015-Jan-10 04:10N 37°05' E 006°59'  
2015-Jan-06 15:08N 36°04' W 005°09'813.5
2015-Jan-06 14:34N 36°03' W 005°18'5 4.2
2015-Jan-06 13:19N 36°07' W 005°22'0 0.0
2015-Jan-06 12:28N 36°07' W 005°22'0 0.0
2015-Jan-06 11:31N 36°07' W 005°22'0 0.1
2015-Jan-06 10:22N 36°07' W 005°22'0 0.2
2015-Jan-06 09:31N 36°08' W 005°23'0 0.2
2015-Jan-06 08:25N 36°07' W 005°22'0 0.0
2015-Jan-06 04:10N 36°07' W 005°22'0 0.0
2015-Jan-06 01:31N 36°07' W 005°22'0 0.1
2015-Jan-06 00:31N 36°08' W 005°22'0 0.0
2015-Jan-05 23:25N 36°08' W 005°22'0 0.1
2015-Jan-05 22:10N 36°08' W 005°22'4 1.3
2015-Jan-05 19:30N 36°04' W 005°20'1 0.9
2015-Jan-05 18:26N 36°04' W 005°21'3 3.9
2015-Jan-05 17:33N 36°01' W 005°21'  

Dump ship's entire track history